Welcome to Northern Hawkes Bay. New Zealand.
PWS Header
      nz Flag



Hit Counter


W3C Valid W3C Valid logo


    Wairoa

Select any of the Stations below to visit their websites.










Historic Data from Weather Underground
Select the location of interest below. Wairoa is the default. Please have patience, this Data is slow to load in.
Northern Hawkes Bay Historical Data
Daily Summary for October 19, 2017 Units:  Metric    English   Both
« Previous Day
Next Day »
Daily Weekly Monthly Yearly Custom
  High: Low: Average:
Temperature: 16.4 °C 8.4 °C 11.6 °C
Dew Point: 8.4 °C 5.2 °C 6.8 °C
Humidity: 95% 51% 74%
Wind Speed: 30.6km/h 0.0km/h 10.5km/h
Wind Gust: 40.4km/h - -
Wind- - SW
Pressure: 1027.3 hPa 1022.6 hPa -
Precipitation: 1.8 mm    
Historical Graphs
 
 
Tabular Data for October 19, 2017
Time Temperature Dew Point Pressure Wind Wind Speed Wind Gust Humidity Rainfall Rate (Hourly) solar
00:03 9.3 °C 7.6 °C 1025.3 hPa SSW 24.5 km/h 37.8 km/h 89% 0.3 mm 0 W/m2
00:08 9.3 °C 7.7 °C 1025.3 hPa SW 17.2 km/h 37.8 km/h 90% 0.3 mm 0 W/m2
00:13 9.7 °C 8.3 °C 1025.3 hPa SSW 17.2 km/h 33.1 km/h 91% 0.3 mm 0 W/m2
00:18 10.0 °C 7.8 °C 1025.3 hPa SSW 25.6 km/h 33.1 km/h 86% 0.3 mm 0 W/m2
00:23 10.1 °C 7.3 °C 1025.3 hPa SSW 21.9 km/h 33.1 km/h 83% 0.3 mm 0 W/m2
00:28 10.1 °C 6.6 °C 1025.3 hPa SSW 19.5 km/h 33.1 km/h 79% 0.3 mm 0 W/m2
00:33 10.1 °C 6.6 °C 1025.3 hPa SW 17.2 km/h 33.1 km/h 79% 0.3 mm 0 W/m2
00:38 10.1 °C 7.0 °C 1025.3 hPa SSW 19.5 km/h 31.7 km/h 81% 0.3 mm 0 W/m2
00:43 10.0 °C 7.1 °C 1025.3 hPa SSW 21.9 km/h 31.7 km/h 82% 0.3 mm 0 W/m2
00:48 9.8 °C 7.2 °C 1025.3 hPa SSW 17.2 km/h 30.6 km/h 84% 0.3 mm 0 W/m2
00:53 9.6 °C 7.2 °C 1025.3 hPa SW 15.8 km/h 28.0 km/h 85% 0.0 mm 0 W/m2
00:58 9.5 °C 7.3 °C 1024.9 hPa WSW 12.2 km/h 24.5 km/h 86% 0.0 mm 0 W/m2
01:03 9.5 °C 7.3 °C 1025.3 hPa SW 17.2 km/h 25.6 km/h 86% 0.0 mm 0 W/m2
01:08 9.6 °C 7.4 °C 1025.3 hPa SW 18.3 km/h 28.0 km/h 86% 0.0 mm 0 W/m2
01:13 9.5 °C 7.4 °C 1025.3 hPa SW 11.1 km/h 28.0 km/h 87% 0.0 mm 0 W/m2
01:18 9.5 °C 7.3 °C 1025.3 hPa SW 21.9 km/h 31.7 km/h 86% 0.0 mm 0 W/m2
01:23 9.6 °C 7.2 °C 1025.3 hPa SW 30.6 km/h 34.3 km/h 85% 0.0 mm 0 W/m2
01:28 9.5 °C 7.3 °C 1025.3 hPa SW 19.5 km/h 34.3 km/h 86% 0.0 mm 0 W/m2
01:33 9.6 °C 7.2 °C 1025.3 hPa SW 13.4 km/h 34.3 km/h 85% 0.0 mm 0 W/m2
01:38 9.5 °C 7.1 °C 1025.3 hPa SW 20.9 km/h 28.0 km/h 85% 0.0 mm 0 W/m2
01:43 9.6 °C 7.6 °C 1025.3 hPa SW 14.8 km/h 28.0 km/h 87% 0.0 mm 0 W/m2
01:48 9.5 °C 7.4 °C 1025.3 hPa SW 11.1 km/h 28.0 km/h 87% 0.0 mm 0 W/m2
01:53 9.5 °C 7.4 °C 1024.9 hPa SW 13.4 km/h 27.0 km/h 87% 0.0 mm 0 W/m2
01:58 9.5 °C 7.4 °C 1025.3 hPa WSW 18.3 km/h 29.4 km/h 87% 0.0 mm 0 W/m2
02:03 9.4 °C 7.5 °C 1025.3 hPa WSW 15.8 km/h 29.4 km/h 88% 0.0 mm 0 W/m2
02:08 9.0 °C 7.6 °C 1024.9 hPa SW 14.8 km/h 31.7 km/h 91% 0.5 mm 0 W/m2
02:13 8.8 °C 7.9 °C 1024.9 hPa SW 18.3 km/h 35.6 km/h 94% 1.0 mm 0 W/m2
02:18 8.6 °C 7.8 °C 1024.9 hPa WSW 19.5 km/h 35.6 km/h 95% 1.3 mm 0 W/m2
02:23 8.6 °C 7.8 °C 1025.3 hPa WSW 17.2 km/h 30.6 km/h 95% 1.3 mm 0 W/m2
02:28 8.6 °C 7.8 °C 1024.9 hPa WSW 8.7 km/h 29.4 km/h 95% 1.3 mm 0 W/m2
02:33 8.6 °C 7.8 °C 1024.9 hPa SW 14.8 km/h 23.3 km/h 95% 1.3 mm 0 W/m2
02:38 8.8 °C 7.9 °C 1024.9 hPa SW 12.2 km/h 20.9 km/h 94% 1.3 mm 0 W/m2
02:43 8.9 °C 7.8 °C 1024.9 hPa SW 27.0 km/h 33.1 km/h 93% 1.3 mm 0 W/m2
02:48 8.9 °C 8.0 °C 1024.9 hPa SW 23.3 km/h 37.8 km/h 94% 1.3 mm 0 W/m2
02:53 8.8 °C 7.9 °C 1024.9 hPa SW 15.8 km/h 37.8 km/h 94% 1.3 mm 0 W/m2
02:58 8.8 °C 7.9 °C 1024.9 hPa SW 17.2 km/h 34.3 km/h 94% 1.3 mm 0 W/m2
03:03 8.8 °C 7.7 °C 1024.9 hPa SW 18.3 km/h 29.4 km/h 93% 1.3 mm 0 W/m2
03:08 9.0 °C 7.6 °C 1024.9 hPa SW 19.5 km/h 31.7 km/h 91% 0.5 mm 0 W/m2
03:13 9.2 °C 7.8 °C 1024.9 hPa SW 19.5 km/h 39.3 km/h 91% 0.3 mm 0 W/m2
03:18 9.2 °C 7.7 °C 1024.9 hPa SW 19.5 km/h 39.3 km/h 90% 0.0 mm 0 W/m2
03:23 9.2 °C 7.5 °C 1024.9 hPa SW 25.6 km/h 40.4 km/h 89% 0.3 mm 0 W/m2
03:28 9.2 °C 7.7 °C 1024.9 hPa SW 21.9 km/h 40.4 km/h 90% 0.3 mm 0 W/m2
03:33 9.1 °C 7.2 °C 1024.9 hPa SW 11.1 km/h 40.4 km/h 88% 0.3 mm 0 W/m2
03:38 9.1 °C 7.2 °C 1024.9 hPa SW 21.9 km/h 35.6 km/h 88% 0.3 mm 0 W/m2
03:43 9.1 °C 7.1 °C 1024.9 hPa SW 14.8 km/h 35.6 km/h 87% 0.3 mm 0 W/m2
03:48 9.2 °C 7.0 °C 1024.9 hPa SW 11.1 km/h 33.1 km/h 86% 0.3 mm 0 W/m2
03:53 9.1 °C 7.1 °C 1024.9 hPa SW 12.2 km/h 29.4 km/h 87% 0.3 mm 0 W/m2
03:58 9.1 °C 7.2 °C 1024.6 hPa SW 24.5 km/h 33.1 km/h 88% 0.3 mm 0 W/m2
04:03 9.1 °C 7.2 °C 1024.9 hPa WSW 15.8 km/h 33.1 km/h 88% 0.3 mm 0 W/m2
04:08 9.1 °C 7.2 °C 1024.9 hPa SW 12.2 km/h 33.1 km/h 88% 0.3 mm 0 W/m2
04:13 9.0 °C 7.1 °C 1024.9 hPa SW 23.3 km/h 33.1 km/h 88% 0.3 mm 0 W/m2
04:18 8.9 °C 7.2 °C 1024.9 hPa SW 17.2 km/h 33.1 km/h 89% 0.3 mm 0 W/m2
04:23 8.8 °C 7.3 °C 1024.9 hPa SW 17.2 km/h 30.6 km/h 90% 0.0 mm 0 W/m2
04:28 8.6 °C 7.1 °C 1024.9 hPa SW 11.1 km/h 30.6 km/h 90% 0.0 mm 0 W/m2
04:33 8.6 °C 7.2 °C 1024.9 hPa WSW 15.8 km/h 29.4 km/h 91% 0.0 mm 0 W/m2
04:38 8.9 °C 7.5 °C 1024.9 hPa WSW 19.5 km/h 27.0 km/h 91% 0.0 mm 0 W/m2
04:43 9.1 °C 7.2 °C 1024.9 hPa WSW 13.4 km/h 27.0 km/h 88% 0.0 mm 0 W/m2
04:48 9.1 °C 7.2 °C 1024.9 hPa SW 17.2 km/h 27.0 km/h 88% 0.0 mm 0 W/m2
04:53 9.1 °C 7.2 °C 1024.9 hPa WSW 14.8 km/h 27.0 km/h 88% 0.0 mm 0 W/m2
04:58 9.2 °C 7.2 °C 1025.3 hPa WSW 15.8 km/h 29.4 km/h 87% 0.0 mm 0 W/m2
05:03 9.2 °C 7.2 °C 1024.9 hPa SW 15.8 km/h 30.6 km/h 87% 0.0 mm 0 W/m2
05:08 9.1 °C 7.2 °C 1025.3 hPa SW 14.8 km/h 30.6 km/h 88% 0.0 mm 0 W/m2
05:13 9.1 °C 7.1 °C 1025.3 hPa SW 23.3 km/h 34.3 km/h 87% 0.0 mm 0 W/m2
05:18 9.3 °C 7.2 °C 1024.9 hPa SW 17.2 km/h 34.3 km/h 87% 0.0 mm 0 W/m2
05:23 9.3 °C 6.9 °C 1025.3 hPa WSW 17.2 km/h 31.7 km/h 85% 0.0 mm 0 W/m2
05:28 9.3 °C 6.7 °C 1025.3 hPa WSW 17.2 km/h 37.8 km/h 84% 0.0 mm 0 W/m2
05:33 9.3 °C 6.7 °C 1025.3 hPa WSW 19.5 km/h 37.8 km/h 84% 0.0 mm 0 W/m2
05:38 9.4 °C 6.8 °C 1024.9 hPa SW 17.2 km/h 30.6 km/h 84% 0.0 mm 0 W/m2
05:43 9.4 °C 6.8 °C 1025.3 hPa WSW 12.2 km/h 30.6 km/h 84% 0.0 mm 0 W/m2
05:48 9.3 °C 6.7 °C 1025.3 hPa West 19.5 km/h 28.0 km/h 84% 0.0 mm 0 W/m2
05:53 9.3 °C 6.9 °C 1025.3 hPa WSW 12.2 km/h 29.4 km/h 85% 0.0 mm 0 W/m2
05:58 9.1 °C 6.9 °C 1025.3 hPa SW 15.8 km/h 29.4 km/h 86% 0.0 mm 0 W/m2
06:03 9.2 °C 7.0 °C 1025.3 hPa SW 14.8 km/h 24.5 km/h 86% 0.0 mm 0 W/m2
06:08 9.3 °C 7.1 °C 1025.3 hPa SW 11.1 km/h 27.0 km/h 86% 0.0 mm 0 W/m2
06:13 9.3 °C 6.9 °C 1025.6 hPa SW 14.8 km/h 27.0 km/h 85% 0.0 mm 0 W/m2
06:18 9.2 °C 6.8 °C 1025.6 hPa SW 19.5 km/h 29.4 km/h 85% 0.0 mm 0 W/m2
06:23 9.0 °C 6.8 °C 1025.6 hPa SW 14.8 km/h 29.4 km/h 86% 0.0 mm 0 W/m2
06:28 9.0 °C 6.8 °C 1025.6 hPa SW 14.8 km/h 33.1 km/h 86% 0.0 mm 0 W/m2
06:33 8.8 °C 6.9 °C 1025.6 hPa SW 14.8 km/h 33.1 km/h 88% 0.0 mm 0 W/m2
06:38 8.6 °C 6.9 °C 1026.0 hPa SSW 12.2 km/h 27.0 km/h 89% 0.0 mm 0 W/m2
06:43 8.4 °C 6.8 °C 1025.6 hPa WSW 13.4 km/h 23.3 km/h 90% 0.0 mm 1 W/m2
06:48 8.6 °C 7.1 °C 1026.0 hPa WSW 11.1 km/h 21.9 km/h 90% 0.3 mm 2 W/m2
06:53 8.6 °C 6.9 °C 1026.0 hPa SW 12.2 km/h 21.9 km/h 89% 0.3 mm 3 W/m2
06:58 8.7 °C 6.8 °C 1026.0 hPa WSW 3.5 km/h 17.2 km/h 88% 0.3 mm 4 W/m2
07:03 8.9 °C 6.8 °C 1026.0 hPa WSW 12.2 km/h 20.9 km/h 87% 0.3 mm 8 W/m2
07:08 9.2 °C 6.8 °C 1026.0 hPa WSW 13.4 km/h 23.3 km/h 85% 0.3 mm 16 W/m2
07:13 9.3 °C 6.7 °C 1026.0 hPa WSW 9.7 km/h 23.3 km/h 84% 0.3 mm 29 W/m2
07:18 9.5 °C 6.9 °C 1026.0 hPa WSW 17.2 km/h 20.9 km/h 84% 0.3 mm 44 W/m2
07:23 9.8 °C 6.9 °C 1026.3 hPa WSW 8.7 km/h 24.5 km/h 82% 0.3 mm 49 W/m2
07:28 10.0 °C 6.9 °C 1026.3 hPa SW 19.5 km/h 29.4 km/h 81% 0.3 mm 40 W/m2
07:33 10.1 °C 6.6 °C 1026.0 hPa SW 11.1 km/h 29.4 km/h 79% 0.3 mm 41 W/m2
07:38 10.2 °C 6.7 °C 1026.3 hPa SW 18.3 km/h 29.4 km/h 79% 0.3 mm 40 W/m2
07:43 10.2 °C 6.9 °C 1026.3 hPa SW 13.4 km/h 28.0 km/h 80% 0.3 mm 38 W/m2
07:48 10.2 °C 6.7 °C 1026.3 hPa SW 15.8 km/h 27.0 km/h 79% 0.0 mm 35 W/m2
07:53 10.1 °C 6.6 °C 1026.6 hPa SW 17.2 km/h 27.0 km/h 79% 0.0 mm 29 W/m2
07:58 10.2 °C 6.6 °C 1026.3 hPa SW 12.2 km/h 27.0 km/h 78% 0.0 mm 36 W/m2
08:03 10.2 °C 6.7 °C 1026.3 hPa SW 18.3 km/h 30.6 km/h 79% 0.0 mm 62 W/m2
08:08 10.2 °C 6.7 °C 1026.3 hPa WSW 14.8 km/h 30.6 km/h 79% 0.0 mm 87 W/m2
08:13 10.4 °C 6.6 °C 1026.6 hPa WSW 14.8 km/h 29.4 km/h 77% 0.0 mm 92 W/m2
08:18 10.5 °C 6.7 °C 1026.3 hPa WSW 14.8 km/h 29.4 km/h 77% 0.0 mm 100 W/m2
08:23 10.6 °C 6.7 °C 1026.3 hPa WSW 15.8 km/h 29.4 km/h 77% 0.0 mm 187 W/m2
08:28 10.9 °C 6.8 °C 1026.3 hPa WSW 14.8 km/h 30.6 km/h 76% 0.0 mm 131 W/m2
08:33 11.0 °C 6.2 °C 1026.3 hPa WSW 19.5 km/h 30.6 km/h 72% 0.0 mm 107 W/m2
08:38 10.8 °C 6.3 °C 1026.6 hPa SW 17.2 km/h 34.3 km/h 74% 0.0 mm 96 W/m2
08:43 10.8 °C 6.3 °C 1026.6 hPa SW 15.8 km/h 34.3 km/h 74% 0.0 mm 96 W/m2
08:48 10.7 °C 6.3 °C 1026.6 hPa SW 17.2 km/h 31.7 km/h 74% 0.0 mm 99 W/m2
08:53 10.7 °C 6.3 °C 1026.6 hPa SW 19.5 km/h 35.6 km/h 74% 0.0 mm 113 W/m2
09:12 11.0 °C 6.2 °C 1026.6 hPa SW 19.5 km/h 30.6 km/h 72% 0.0 mm 180 W/m2
09:17 11.1 °C 5.8 °C 1026.6 hPa SW 18.3 km/h 31.7 km/h 70% 0.0 mm 218 W/m2
09:22 11.4 °C 6.3 °C 1026.6 hPa SW 14.8 km/h 31.7 km/h 71% 0.0 mm 350 W/m2
09:27 12.0 °C 6.9 °C 1026.6 hPa SW 13.4 km/h 30.6 km/h 71% 0.0 mm 377 W/m2
09:32 12.1 °C 6.6 °C 1027.0 hPa SW 14.8 km/h 30.6 km/h 69% 0.0 mm 261 W/m2
09:39 11.8 °C 6.7 °C 1027.0 hPa SW 18.3 km/h 30.6 km/h 71% 0.0 mm 260 W/m2
09:47 11.8 °C 6.5 °C 1027.0 hPa SW 13.4 km/h 29.4 km/h 70% 0.0 mm 233 W/m2
09:52 11.8 °C 6.9 °C 1027.0 hPa SW 25.6 km/h 35.6 km/h 72% 0.0 mm 232 W/m2
10:04 11.8 °C 6.3 °C 1027.0 hPa SW 25.6 km/h 34.3 km/h 69% 0.0 mm 264 W/m2
10:10 11.8 °C 6.5 °C 1027.0 hPa SW 20.9 km/h 34.3 km/h 70% 0.0 mm 344 W/m2
10:15 12.0 °C 6.5 °C 1027.3 hPa SSW 21.9 km/h 31.7 km/h 69% 0.0 mm 281 W/m2
10:20 12.2 °C 7.1 °C 1027.0 hPa SSW 17.2 km/h 31.7 km/h 71% 0.0 mm 259 W/m2
10:26 12.2 °C 6.7 °C 1027.0 hPa SW 17.2 km/h 29.4 km/h 69% 0.0 mm 307 W/m2
10:31 12.2 °C 6.1 °C 1027.0 hPa SW 21.9 km/h 29.4 km/h 66% 0.0 mm 588 W/m2
10:36 12.4 °C 6.2 °C 1027.3 hPa WSW 19.5 km/h 33.1 km/h 66% 0.0 mm 583 W/m2
10:41 12.5 °C 6.1 °C 1027.0 hPa WSW 17.2 km/h 33.1 km/h 65% 0.0 mm 412 W/m2
10:46 12.5 °C 6.3 °C 1027.0 hPa SW 13.4 km/h 29.4 km/h 66% 0.0 mm 290 W/m2
10:51 12.6 °C 6.4 °C 1027.0 hPa SW 18.3 km/h 29.4 km/h 66% 0.0 mm 366 W/m2
10:56 12.4 °C 5.8 °C 1027.0 hPa SW 19.5 km/h 29.4 km/h 64% 0.0 mm 297 W/m2
11:01 12.3 °C 5.7 °C 1027.0 hPa SW 15.8 km/h 29.4 km/h 64% 0.0 mm 268 W/m2
11:06 12.3 °C 6.6 °C 1027.0 hPa SW 19.5 km/h 29.4 km/h 68% 0.0 mm 288 W/m2
11:11 12.3 °C 5.9 °C 1027.0 hPa SW 18.3 km/h 29.4 km/h 65% 0.0 mm 278 W/m2
11:16 12.2 °C 6.1 °C 1027.3 hPa SW 15.8 km/h 27.0 km/h 66% 0.0 mm 325 W/m2
11:21 12.3 °C 6.1 °C 1027.0 hPa SW 14.8 km/h 28.0 km/h 66% 0.0 mm 349 W/m2
11:26 12.3 °C 5.9 °C 1027.0 hPa SW 15.8 km/h 30.6 km/h 65% 0.0 mm 339 W/m2
11:31 12.3 °C 5.9 °C 1027.0 hPa SW 15.8 km/h 30.6 km/h 65% 0.0 mm 391 W/m2
11:36 12.4 °C 6.0 °C 1027.0 hPa SW 23.3 km/h 28.0 km/h 65% 0.0 mm 762 W/m2
11:41 12.9 °C 6.5 °C 1027.0 hPa WSW 14.8 km/h 28.0 km/h 65% 0.0 mm 473 W/m2
11:46 13.1 °C 6.7 °C 1027.0 hPa SW 9.7 km/h 29.4 km/h 65% 0.0 mm 535 W/m2
11:51 13.5 °C 6.8 °C 1027.0 hPa SW 20.9 km/h 29.4 km/h 64% 0.0 mm 847 W/m2
11:56 13.3 °C 6.6 °C 1027.0 hPa SW 15.8 km/h 29.4 km/h 64% 0.0 mm 714 W/m2
12:01 13.3 °C 6.2 °C 1027.0 hPa WSW 12.2 km/h 29.4 km/h 62% 0.0 mm 755 W/m2
12:06 13.3 °C 6.6 °C 1027.0 hPa SW 13.4 km/h 29.4 km/h 64% 0.0 mm 725 W/m2
12:11 13.3 °C 6.2 °C 1027.0 hPa SW 14.8 km/h 24.5 km/h 62% 0.0 mm 722 W/m2
12:16 13.4 °C 6.5 °C 1027.0 hPa SW 15.8 km/h 28.0 km/h 63% 0.0 mm 729 W/m2
12:21 13.2 °C 6.3 °C 1027.0 hPa WSW 14.8 km/h 28.0 km/h 63% 0.0 mm 727 W/m2
12:27 13.1 °C 5.8 °C 1027.0 hPa SW 9.7 km/h 24.5 km/h 61% 0.0 mm 732 W/m2
12:32 13.2 °C 6.6 °C 1026.6 hPa SW 15.8 km/h 24.5 km/h 64% 0.0 mm 736 W/m2
12:37 13.0 °C 5.9 °C 1026.6 hPa WSW 14.8 km/h 27.0 km/h 62% 0.0 mm 732 W/m2
12:42 13.2 °C 6.6 °C 1026.6 hPa SW 7.2 km/h 27.0 km/h 64% 0.0 mm 735 W/m2
12:47 13.4 °C 6.3 °C 1026.6 hPa SW 15.8 km/h 25.6 km/h 62% 0.0 mm 739 W/m2
12:52 13.1 °C 5.8 °C 1026.6 hPa SW 12.2 km/h 24.5 km/h 61% 0.0 mm 736 W/m2
12:57 13.1 °C 6.0 °C 1026.6 hPa SW 15.8 km/h 25.6 km/h 62% 0.0 mm 733 W/m2
13:02 13.5 °C 6.1 °C 1026.6 hPa SW 7.2 km/h 25.6 km/h 61% 0.0 mm 735 W/m2
13:07 13.5 °C 5.9 °C 1026.6 hPa SW 9.7 km/h 18.3 km/h 60% 0.0 mm 735 W/m2
13:12 14.1 °C 6.7 °C 1026.3 hPa SW 11.1 km/h 18.3 km/h 61% 0.0 mm 735 W/m2
13:17 13.5 °C 5.4 °C 1027.0 hPa SSW 7.2 km/h 20.9 km/h 58% 0.0 mm 728 W/m2
13:22 13.9 °C 6.3 °C 1026.6 hPa SW 7.2 km/h 20.9 km/h 60% 0.0 mm 726 W/m2
13:27 13.7 °C 5.6 °C 1026.3 hPa WSW 5.0 km/h 19.5 km/h 58% 0.0 mm 719 W/m2
13:32 13.5 °C 5.2 °C 1026.3 hPa SW 7.2 km/h 19.5 km/h 57% 0.0 mm 715 W/m2
13:37 13.7 °C 5.8 °C 1026.3 hPa WSW 14.8 km/h 21.9 km/h 59% 0.0 mm 706 W/m2
13:42 13.5 °C 5.4 °C 1026.3 hPa SW 11.1 km/h 21.9 km/h 58% 0.0 mm 698 W/m2
13:47 13.8 °C 6.2 °C 1026.6 hPa SW 7.2 km/h 21.9 km/h 60% 0.0 mm 688 W/m2
13:52 13.9 °C 5.8 °C 1026.3 hPa SW 12.2 km/h 21.9 km/h 58% 0.0 mm 683 W/m2
13:57 13.8 °C 5.2 °C 1026.3 hPa SW 11.1 km/h 21.9 km/h 56% 0.0 mm 658 W/m2
14:02 14.0 °C 5.9 °C 1026.3 hPa SW 15.8 km/h 21.9 km/h 58% 0.0 mm 637 W/m2
14:07 14.0 °C 5.6 °C 1026.3 hPa SW 11.1 km/h 20.9 km/h 57% 0.0 mm 616 W/m2
14:12 13.8 °C 5.7 °C 1026.3 hPa SW 12.2 km/h 20.9 km/h 58% 0.0 mm 506 W/m2
14:17 13.9 °C 5.8 °C 1026.3 hPa SW 15.8 km/h 20.9 km/h 58% 0.0 mm 572 W/m2
14:23 14.0 °C 5.4 °C 1026.3 hPa SW 17.2 km/h 21.9 km/h 56% 0.0 mm 540 W/m2
14:28 13.7 °C 5.3 °C 1026.3 hPa SW 7.2 km/h 21.9 km/h 57% 0.0 mm 526 W/m2
14:33 13.8 °C 5.4 °C 1026.3 hPa SW 13.4 km/h 21.9 km/h 57% 0.0 mm 510 W/m2
14:38 14.3 °C 5.7 °C 1026.0 hPa SW 11.1 km/h 20.9 km/h 56% 0.0 mm 487 W/m2
14:43 14.4 °C 5.7 °C 1026.0 hPa SSW 8.7 km/h 20.9 km/h 56% 0.0 mm 584 W/m2
14:48 14.4 °C 5.5 °C 1026.0 hPa SSW 8.7 km/h 18.3 km/h 55% 0.0 mm 398 W/m2
14:53 14.4 °C 5.5 °C 1026.0 hPa SSW 11.1 km/h 18.3 km/h 55% 0.0 mm 559 W/m2
14:58 14.6 °C 5.7 °C 1026.0 hPa SSW 14.8 km/h 18.3 km/h 55% 0.0 mm 439 W/m2
15:03 14.4 °C 5.7 °C 1026.0 hPa SSW 3.5 km/h 18.3 km/h 56% 0.0 mm 490 W/m2
15:08 15.0 °C 5.8 °C 1026.0 hPa South 5.0 km/h 18.3 km/h 54% 0.0 mm 321 W/m2
15:13 15.0 °C 5.5 °C 1025.6 hPa South 6.1 km/h 15.8 km/h 53% 0.0 mm 513 W/m2
15:18 15.3 °C 5.8 °C 1025.6 hPa South 7.2 km/h 15.8 km/h 53% 0.0 mm 505 W/m2
15:23 15.1 °C 5.9 °C 1025.6 hPa SSW 8.7 km/h 14.8 km/h 54% 0.0 mm 494 W/m2
15:28 14.7 °C 5.8 °C 1025.6 hPa SSW 11.1 km/h 17.2 km/h 55% 0.0 mm 377 W/m2
15:33 14.7 °C 5.5 °C 1025.6 hPa South 3.5 km/h 17.2 km/h 54% 0.0 mm 452 W/m2
15:38 15.0 °C 5.8 °C 1025.6 hPa South 12.2 km/h 15.8 km/h 54% 0.0 mm 316 W/m2
15:43 15.0 °C 5.8 °C 1025.3 hPa SSW 9.7 km/h 15.8 km/h 54% 0.0 mm 448 W/m2
15:48 14.9 °C 5.9 °C 1025.3 hPa South 8.7 km/h 18.3 km/h 55% 0.0 mm 315 W/m2
15:53 14.8 °C 5.8 °C 1025.3 hPa South 9.7 km/h 18.3 km/h 55% 0.0 mm 289 W/m2
15:58 15.7 °C 6.4 °C 1024.9 hPa South 7.2 km/h 18.3 km/h 54% 0.0 mm 420 W/m2
16:03 15.9 °C 6.3 °C 1024.9 hPa SSE 6.1 km/h 15.8 km/h 53% 0.0 mm 134 W/m2
16:08 15.3 °C 5.8 °C 1024.9 hPa SSE 2.6 km/h 14.8 km/h 53% 0.0 mm 335 W/m2
16:13 15.5 °C 5.9 °C 1024.9 hPa SSE 6.1 km/h 14.8 km/h 53% 0.0 mm 295 W/m2
16:20 15.1 °C 5.6 °C 1024.9 hPa SSE 8.7 km/h 17.2 km/h 53% 0.0 mm 395 W/m2
16:26 15.6 °C 6.6 °C 1024.9 hPa SSE 3.5 km/h 17.2 km/h 55% 0.0 mm 395 W/m2
16:27 15.8 °C 6.8 °C 1025.3 hPa SSE 2.6 km/h 17.2 km/h 55% 0.0 mm 312 W/m2
16:32 16.1 °C 6.2 °C 1024.9 hPa SE 1.1 km/h 14.8 km/h 52% 0.0 mm 434 W/m2
16:34 15.8 °C 6.5 °C 1024.9 hPa SSE 8.7 km/h 14.8 km/h 54% 0.0 mm 329 W/m2
16:39 16.0 °C 6.2 °C 1024.9 hPa SSE 2.6 km/h 14.8 km/h 52% 0.0 mm 446 W/m2
16:44 16.0 °C 5.9 °C 1024.6 hPa SSE 1.1 km/h 12.2 km/h 51% 0.0 mm 324 W/m2
16:49 15.9 °C 6.3 °C 1024.6 hPa SE 3.5 km/h 12.2 km/h 53% 0.0 mm 365 W/m2
16:50 15.9 °C 6.1 °C 1024.6 hPa SSE 3.5 km/h 12.2 km/h 52% 0.0 mm 289 W/m2
16:55 15.7 °C 6.2 °C 1024.6 hPa SSE 3.5 km/h 12.2 km/h 53% 0.0 mm 294 W/m2
16:56 15.9 °C 6.3 °C 1024.6 hPa SSE 3.5 km/h 9.7 km/h 53% 0.0 mm 287 W/m2
17:01 15.8 °C 6.2 °C 1024.3 hPa SSE 3.5 km/h 9.7 km/h 53% 0.0 mm 336 W/m2
17:06 16.1 °C 6.2 °C 1024.3 hPa SE 1.1 km/h 11.1 km/h 52% 0.0 mm 303 W/m2
17:11 16.4 °C 6.5 °C 1024.3 hPa SE 3.5 km/h 11.1 km/h 52% 0.0 mm 260 W/m2
17:16 15.7 °C 5.6 °C 1024.3 hPa SSE 6.1 km/h 8.7 km/h 51% 0.0 mm 122 W/m2
17:21 14.5 °C 5.6 °C 1024.3 hPa SSE 3.5 km/h 8.7 km/h 55% 0.0 mm 124 W/m2
17:26 14.0 °C 6.1 °C 1024.3 hPa SSE 5.0 km/h 9.7 km/h 59% 0.0 mm 158 W/m2
17:31 14.0 °C 6.1 °C 1024.3 hPa SSE 1.1 km/h 9.7 km/h 59% 0.0 mm 118 W/m2
17:36 14.1 °C 6.7 °C 1024.3 hPa SSE 5.0 km/h 9.7 km/h 61% 0.0 mm 94 W/m2
17:41 14.1 °C 6.7 °C 1024.3 hPa Calm   7.2 km/h 61% 0.0 mm 173 W/m2
17:46 14.9 °C 7.2 °C 1024.3 hPa ESE 1.1 km/h 8.7 km/h 60% 0.0 mm 127 W/m2
17:51 14.9 °C 6.4 °C 1024.3 hPa ESE 3.5 km/h 8.7 km/h 57% 0.0 mm 98 W/m2
17:56 14.3 °C 5.9 °C 1024.3 hPa Calm   11.1 km/h 57% 0.0 mm 61 W/m2
18:01 13.8 °C 6.2 °C 1023.9 hPa ESE 2.6 km/h 11.1 km/h 60% 0.0 mm 68 W/m2
18:06 13.3 °C 5.9 °C 1024.3 hPa ESE 1.1 km/h 9.7 km/h 61% 0.0 mm 64 W/m2
18:11 13.2 °C 6.1 °C 1023.9 hPa ESE 2.6 km/h 8.7 km/h 62% 0.0 mm 60 W/m2
18:16 13.3 °C 6.2 °C 1023.9 hPa SE 1.1 km/h 9.7 km/h 62% 0.0 mm 61 W/m2
18:21 13.3 °C 6.4 °C 1023.9 hPa Calm   9.7 km/h 63% 0.0 mm 56 W/m2
18:26 13.2 °C 6.6 °C 1023.6 hPa SE 1.1 km/h 7.2 km/h 64% 0.0 mm 52 W/m2
18:31 13.0 °C 6.3 °C 1023.2 hPa ESE 1.1 km/h 7.2 km/h 64% 0.0 mm 47 W/m2
18:36 12.9 °C 6.1 °C 1023.2 hPa Calm   5.0 km/h 63% 0.0 mm 38 W/m2
18:41 12.5 °C 6.1 °C 1023.2 hPa East 2.6 km/h 5.0 km/h 65% 0.0 mm 34 W/m2
18:46 12.3 °C 5.9 °C 1023.6 hPa Calm   5.0 km/h 65% 0.0 mm 40 W/m2
18:51 12.3 °C 6.1 °C 1023.2 hPa Calm   2.6 km/h 66% 0.0 mm 35 W/m2
18:56 12.3 °C 6.3 °C 1023.2 hPa Calm   3.5 km/h 67% 0.0 mm 21 W/m2
19:01 12.2 °C 6.3 °C 1023.2 hPa Calm   3.5 km/h 67% 0.0 mm 15 W/m2
19:06 12.1 °C 6.4 °C 1023.2 hPa Calm   2.6 km/h 68% 0.0 mm 10 W/m2
19:25 11.7 °C 6.4 °C 1023.2 hPa Calm   1.1 km/h 70% 0.0 mm 0 W/m2
19:30 11.6 °C 6.7 °C 1022.9 hPa Calm   2.6 km/h 72% 0.0 mm 0 W/m2
19:35 11.6 °C 6.7 °C 1023.2 hPa Calm   2.6 km/h 72% 0.0 mm 0 W/m2
19:40 11.6 °C 6.7 °C 1023.2 hPa Calm   3.5 km/h 72% 0.0 mm 0 W/m2
19:45 11.6 °C 6.9 °C 1023.2 hPa ESE 2.6 km/h 5.0 km/h 73% 0.0 mm 0 W/m2
19:50 11.6 °C 6.7 °C 1022.9 hPa Calm   5.0 km/h 72% 0.0 mm 0 W/m2
19:55 11.6 °C 6.7 °C 1023.2 hPa Calm   5.0 km/h 72% 0.0 mm 0 W/m2
20:00 11.9 °C 7.0 °C 1023.2 hPa Calm   2.6 km/h 72% 0.0 mm 0 W/m2
20:05 11.5 °C 6.6 °C 1023.2 hPa Calm   2.6 km/h 72% 0.0 mm 0 W/m2
20:10 11.6 °C 6.9 °C 1023.2 hPa Calm   2.6 km/h 73% 0.0 mm 0 W/m2
20:15 11.5 °C 6.8 °C 1023.2 hPa Calm     73% 0.0 mm 0 W/m2
20:20 11.5 °C 6.8 °C 1023.2 hPa Calm     73% 0.0 mm 0 W/m2
20:25 11.4 °C 6.9 °C 1023.2 hPa Calm     74% 0.0 mm 0 W/m2
20:30 11.4 °C 6.9 °C 1023.2 hPa Calm     74% 0.0 mm 0 W/m2
20:35 11.3 °C 6.8 °C 1023.6 hPa Calm     74% 0.0 mm 0 W/m2
20:40 11.2 °C 6.7 °C 1023.6 hPa Calm     74% 0.0 mm 0 W/m2
20:45 11.4 °C 7.1 °C 1023.6 hPa Calm     75% 0.0 mm 0 W/m2
20:50 11.4 °C 7.1 °C 1023.6 hPa Calm     75% 0.0 mm 0 W/m2
20:55 11.4 °C 7.1 °C 1023.6 hPa Calm     75% 0.0 mm 0 W/m2
21:00 11.6 °C 7.5 °C 1023.6 hPa Calm     76% 0.0 mm 0 W/m2
21:06 11.3 °C 7.2 °C 1023.6 hPa Calm     76% 0.0 mm 0 W/m2
21:11 11.3 °C 7.2 °C 1023.6 hPa Calm     76% 0.0 mm 0 W/m2
21:16 11.5 °C 7.4 °C 1023.2 hPa Calm     76% 0.0 mm 0 W/m2
21:21 11.2 °C 7.1 °C 1023.6 hPa Calm     76% 0.0 mm 0 W/m2
21:26 11.2 °C 7.1 °C 1023.6 hPa Calm     76% 0.0 mm 0 W/m2
21:31 11.1 °C 7.1 °C 1023.6 hPa Calm     76% 0.0 mm 0 W/m2
21:36 11.5 °C 7.6 °C 1023.6 hPa Calm   2.6 km/h 77% 0.0 mm 0 W/m2
21:41 11.2 °C 7.3 °C 1023.6 hPa Calm   3.5 km/h 77% 0.0 mm 0 W/m2
21:46 11.3 °C 7.4 °C 1023.6 hPa Calm   3.5 km/h 77% 0.0 mm 0 W/m2
21:51 11.3 °C 7.6 °C 1023.6 hPa Calm   2.6 km/h 78% 0.0 mm 0 W/m2
21:56 11.3 °C 7.6 °C 1023.6 hPa Calm   2.6 km/h 78% 0.0 mm 0 W/m2
22:01 11.2 °C 7.5 °C 1023.6 hPa Calm   1.1 km/h 78% 0.0 mm 0 W/m2
22:06 11.1 °C 7.4 °C 1023.6 hPa Calm   1.1 km/h 78% 0.0 mm 0 W/m2
22:11 11.1 °C 7.6 °C 1023.6 hPa Calm   1.1 km/h 79% 0.0 mm 0 W/m2
22:16 11.1 °C 7.6 °C 1023.6 hPa Calm   1.1 km/h 79% 0.0 mm 0 W/m2
22:21 10.9 °C 7.6 °C 1023.6 hPa Calm     80% 0.0 mm 0 W/m2
22:26 10.9 °C 7.8 °C 1023.6 hPa Calm   1.1 km/h 81% 0.0 mm 0 W/m2
22:31 10.9 °C 7.9 °C 1023.2 hPa Calm   1.1 km/h 82% 0.0 mm 0 W/m2
22:36 11.0 °C 8.1 °C 1023.2 hPa Calm     82% 0.0 mm 0 W/m2
22:41 10.9 °C 8.1 °C 1023.2 hPa Calm     83% 0.0 mm 0 W/m2
22:46 10.9 °C 7.9 °C 1023.2 hPa Calm     82% 0.0 mm 0 W/m2
22:51 10.9 °C 7.9 °C 1023.2 hPa Calm     82% 0.0 mm 0 W/m2
22:56 11.0 °C 7.9 °C 1023.2 hPa Calm   1.1 km/h 81% 0.0 mm 0 W/m2
23:01 10.9 °C 7.9 °C 1023.2 hPa Calm   1.1 km/h 82% 0.0 mm 0 W/m2
23:06 10.9 °C 8.1 °C 1023.2 hPa Calm   1.1 km/h 83% 0.0 mm 0 W/m2
23:11 10.9 °C 8.1 °C 1023.2 hPa Calm   1.1 km/h 83% 0.0 mm 0 W/m2
23:16 10.8 °C 8.1 °C 1023.2 hPa Calm     83% 0.0 mm 0 W/m2
23:21 10.8 °C 8.2 °C 1023.2 hPa Calm     84% 0.0 mm 0 W/m2
23:26 10.8 °C 8.2 °C 1022.9 hPa Calm     84% 0.0 mm 0 W/m2
23:31 10.8 °C 8.4 °C 1022.9 hPa Calm   1.1 km/h 85% 0.0 mm 0 W/m2
23:36 10.9 °C 8.3 °C 1022.9 hPa Calm   1.1 km/h 84% 0.0 mm 0 W/m2
23:41 10.8 °C 8.2 °C 1022.9 hPa Calm     84% 0.0 mm 0 W/m2
23:46 10.8 °C 8.2 °C 1022.9 hPa Calm     84% 0.0 mm 0 W/m2
23:51 10.8 °C 8.2 °C 1022.9 hPa Calm   1.1 km/h 84% 0.0 mm 0 W/m2
23:56 11.0 °C 8.4 °C 1022.6 hPa Calm   1.1 km/h 84% 0.0 mm 0 W/m2
Northern Hawkes Bay. New Zealand Historic Data
Compliments of Weather Underground - 2 mb